createdAt,value
2018-03-20T00:00:28.897Z,44.60
2018-03-20T00:01:30.301Z,44.60
2018-03-20T00:02:31.729Z,44.60
2018-03-20T00:05:51.527Z,44.60
2018-03-20T00:06:52.935Z,44.60
2018-03-20T00:07:54.323Z,44.60
2018-03-20T00:08:56.503Z,44.60
2018-03-20T00:09:57.920Z,44.60
2018-03-20T00:10:59.616Z,44.60
2018-03-20T00:12:01.018Z,44.60
2018-03-20T00:14:51.946Z,45.00
2018-03-20T00:16:57.218Z,45.00
2018-03-20T00:17:59.343Z,45.00
2018-03-20T00:19:01.495Z,44.50
2018-03-20T00:20:02.976Z,44.50
2018-03-20T00:21:04.371Z,44.60
2018-03-20T00:22:06.541Z,45.10
2018-03-20T00:23:59.175Z,44.50
2018-03-20T00:25:00.577Z,44.50
2018-03-20T00:26:01.979Z,44.40
2018-03-20T00:27:42.679Z,45.00
2018-03-20T00:28:44.105Z,44.50
2018-03-20T00:31:08.359Z,44.40
2018-03-20T00:32:09.763Z,44.30
2018-03-20T00:33:11.335Z,44.30
2018-03-20T00:34:12.731Z,44.30
2018-03-20T00:35:14.149Z,44.30
2018-03-20T00:36:15.543Z,44.20
2018-03-20T00:37:17.362Z,44.40
2018-03-20T00:38:18.797Z,44.50
2018-03-20T00:39:21.315Z,44.50
2018-03-20T00:40:22.709Z,44.50
2018-03-20T00:41:24.123Z,44.40
2018-03-20T00:42:25.534Z,44.50
2018-03-20T00:43:27.303Z,44.50
2018-03-20T00:44:28.719Z,44.50
2018-03-20T00:45:30.851Z,44.50
2018-03-20T00:46:33.375Z,44.50
2018-03-20T00:47:34.767Z,44.60
2018-03-20T00:48:36.183Z,44.50
2018-03-20T00:49:37.643Z,44.50
2018-03-20T00:50:39.744Z,45.10
2018-03-20T01:05:06.175Z,45.00
2018-03-20T01:06:08.315Z,45.50
2018-03-20T01:07:09.712Z,45.10
2018-03-20T01:08:11.789Z,45.10
2018-03-20T01:09:13.183Z,45.00
2018-03-20T01:10:14.610Z,45.00
2018-03-20T01:11:16.031Z,45.00
2018-03-20T01:12:17.424Z,45.00
2018-03-20T01:14:27.116Z,45.00
2018-03-20T01:15:29.317Z,45.60
2018-03-20T01:16:30.703Z,45.10
2018-03-20T01:17:32.220Z,45.10
2018-03-20T01:19:36.519Z,45.10
2018-03-20T01:20:38.183Z,45.10
2018-03-20T01:26:56.563Z,44.90
2018-03-20T01:28:34.154Z,44.90
2018-03-20T01:30:39.439Z,45.50
2018-03-20T01:31:42.426Z,46.20
2018-03-20T01:32:44.104Z,45.20
2018-03-20T01:33:47.002Z,45.40
2018-03-20T01:35:51.526Z,45.50
2018-03-20T01:36:52.932Z,45.50
2018-03-20T01:37:54.621Z,45.50
2018-03-20T01:38:56.042Z,45.60
2018-03-20T01:40:19.183Z,45.60
2018-03-20T01:41:20.951Z,45.50
2018-03-20T01:42:22.347Z,45.50
2018-03-20T01:44:09.426Z,45.40
2018-03-20T01:45:10.821Z,45.50
2018-03-20T01:46:12.200Z,45.40
2018-03-20T01:47:13.614Z,45.30
2018-03-20T01:50:21.285Z,45.30
2018-03-20T01:51:22.687Z,45.30
2018-03-20T01:52:25.015Z,45.30
2018-03-20T01:53:26.419Z,45.20
2018-03-20T01:54:28.117Z,45.20
2018-03-20T01:55:29.523Z,45.10
2018-03-20T01:57:26.180Z,45.10
2018-03-20T01:59:31.551Z,45.00
2018-03-20T02:00:32.975Z,45.10
2018-03-20T02:01:34.385Z,45.00
2018-03-20T02:02:35.799Z,45.10
2018-03-20T02:04:40.699Z,45.00
2018-03-20T02:06:23.075Z,44.90
2018-03-20T02:07:25.976Z,44.90
2018-03-20T02:08:27.454Z,44.90
2018-03-20T02:09:28.849Z,44.80
2018-03-20T02:10:31.299Z,45.40
2018-03-20T02:11:32.693Z,44.80
2018-03-20T02:12:34.115Z,44.80
2018-03-20T02:13:35.499Z,44.80
2018-03-20T02:15:40.763Z,44.80
2018-03-20T02:16:42.229Z,44.70
2018-03-20T02:17:43.635Z,44.80
2018-03-20T02:19:48.135Z,44.80
2018-03-20T02:20:49.844Z,44.70
2018-03-20T02:22:54.370Z,44.80
2018-03-20T02:23:55.783Z,44.90
2018-03-20T02:24:57.189Z,44.80
2018-03-20T02:25:58.963Z,44.90
2018-03-20T02:27:00.365Z,44.90
2018-03-20T02:28:01.759Z,45.00
2018-03-20T02:29:03.154Z,45.00
2018-03-20T02:30:04.609Z,45.10
2018-03-20T02:31:06.058Z,44.90
2018-03-20T02:32:07.449Z,45.00
2018-03-20T02:33:08.849Z,45.10
2018-03-20T02:34:10.274Z,45.10
2018-03-20T02:35:12.271Z,45.20
2018-03-20T02:37:16.791Z,45.30
2018-03-20T02:38:18.202Z,45.20
2018-03-20T02:39:19.617Z,45.30
2018-03-20T02:41:24.422Z,45.30
2018-03-20T02:43:47.859Z,45.40
2018-03-20T02:44:49.259Z,45.50
2018-03-20T02:45:50.650Z,45.50
2018-03-20T02:46:52.095Z,45.40
2018-03-20T02:47:54.250Z,45.40
2018-03-20T02:48:56.393Z,45.50
2018-03-20T02:51:00.993Z,45.50
2018-03-20T02:52:02.632Z,45.50
2018-03-20T02:54:29.027Z,45.50
2018-03-20T02:57:07.251Z,45.50
2018-03-20T02:58:08.653Z,45.50
2018-03-20T02:59:39.077Z,45.50
2018-03-20T03:02:47.754Z,45.60
2018-03-20T03:04:52.281Z,45.50
2018-03-20T03:05:53.695Z,45.40
2018-03-20T03:07:58.341Z,45.60
2018-03-20T03:08:59.767Z,45.60
2018-03-20T03:10:01.951Z,46.00
2018-03-20T03:11:04.165Z,45.60
2018-03-20T03:12:05.609Z,45.60
2018-03-20T03:13:07.332Z,45.60
2018-03-20T03:16:15.683Z,45.40
2018-03-20T03:17:17.817Z,45.50
2018-03-20T03:19:22.399Z,45.50
2018-03-20T03:20:23.805Z,45.50
2018-03-20T03:21:25.265Z,45.50
2018-03-20T03:22:27.400Z,45.40
2018-03-20T03:24:33.400Z,45.50
2018-03-20T03:26:37.907Z,45.60
2018-03-20T03:27:39.322Z,45.50
2018-03-20T03:28:42.719Z,45.50
2018-03-20T03:33:03.636Z,45.30
2018-03-20T03:34:05.065Z,45.30
2018-03-20T03:35:06.825Z,45.30
2018-03-20T03:36:08.240Z,45.20
2018-03-20T03:38:14.383Z,45.40
2018-03-20T03:41:22.355Z,45.40
2018-03-20T03:42:23.770Z,45.40
2018-03-20T03:43:26.348Z,45.30
2018-03-20T03:44:28.067Z,45.50
2018-03-20T03:45:29.555Z,45.40
2018-03-20T03:46:30.977Z,45.60
2018-03-20T03:47:32.400Z,45.60
2018-03-20T03:49:37.675Z,45.50
2018-03-20T03:50:39.129Z,45.50
2018-03-20T03:51:40.533Z,45.50
2018-03-20T03:52:42.197Z,45.50
2018-03-20T03:54:46.803Z,45.50
2018-03-20T03:57:55.911Z,45.50
2018-03-20T03:58:57.309Z,45.50
2018-03-20T03:59:59.097Z,45.60
2018-03-20T04:01:00.503Z,45.70
2018-03-20T04:02:01.918Z,45.50
2018-03-20T04:04:07.160Z,46.10
2018-03-20T04:05:08.941Z,45.50
2018-03-20T04:06:10.353Z,45.40
2018-03-20T04:07:12.753Z,45.10
2018-03-20T04:08:14.169Z,45.10
2018-03-20T04:09:15.575Z,45.20
2018-03-20T04:10:18.364Z,45.10
2018-03-20T04:12:22.915Z,45.20
2018-03-20T04:13:24.328Z,45.40
2018-03-20T04:14:26.840Z,45.40
2018-03-20T04:15:28.625Z,45.40
2018-03-20T04:18:36.267Z,45.60
2018-03-20T04:19:38.817Z,45.70
2018-03-20T04:20:40.504Z,45.70
2018-03-20T04:21:42.797Z,45.50
2018-03-20T04:22:44.227Z,45.50
2018-03-20T04:23:45.629Z,45.50
2018-03-20T04:28:22.163Z,45.40
2018-03-20T04:30:26.701Z,45.50
2018-03-20T04:32:04.360Z,45.40
2018-03-20T04:33:06.493Z,46.80
2018-03-20T04:34:07.909Z,45.70
2018-03-20T04:35:09.309Z,45.70
2018-03-20T04:36:10.735Z,45.70
2018-03-20T04:37:12.229Z,45.60
2018-03-20T04:38:13.626Z,45.50
2018-03-20T04:39:15.005Z,45.50
2018-03-20T04:40:16.417Z,45.50
2018-03-20T04:41:17.813Z,45.70
2018-03-20T04:43:22.357Z,45.40
2018-03-20T04:44:23.779Z,45.50
2018-03-20T04:45:25.190Z,45.40
2018-03-20T04:48:29.282Z,45.50
2018-03-20T04:49:30.705Z,45.50
2018-03-20T04:51:35.240Z,45.60
2018-03-20T04:55:11.562Z,45.50
2018-03-20T04:56:13.705Z,45.90
2018-03-20T04:58:54.031Z,45.20
2018-03-20T04:59:55.433Z,45.10
2018-03-20T05:00:56.809Z,45.00
2018-03-20T05:01:59.307Z,44.90
2018-03-20T05:03:00.720Z,44.80
2018-03-20T05:04:03.621Z,44.70
2018-03-20T05:05:05.073Z,44.70
2018-03-20T05:06:07.205Z,45.20
2018-03-20T05:09:16.418Z,44.50
2018-03-20T05:10:17.816Z,44.40
2018-03-20T05:11:19.217Z,44.60
2018-03-20T05:12:20.615Z,44.50
2018-03-20T05:13:59.651Z,45.30
2018-03-20T05:16:06.003Z,44.90
2018-03-20T05:17:07.432Z,44.90
2018-03-20T05:21:06.575Z,45.10
2018-03-20T05:23:59.135Z,44.90
2018-03-20T05:25:00.553Z,44.90
2018-03-20T05:27:22.336Z,44.70
2018-03-20T05:30:05.829Z,45.00
2018-03-20T05:31:08.001Z,45.50
2018-03-20T05:32:43.675Z,44.80
2018-03-20T05:33:45.837Z,44.80
2018-03-20T05:35:50.837Z,44.80
2018-03-20T05:36:52.257Z,44.70
2018-03-20T05:37:54.088Z,44.70
2018-03-20T05:38:56.641Z,44.80
2018-03-20T05:39:58.061Z,44.80
2018-03-20T05:41:23.713Z,44.90
2018-03-20T05:42:25.141Z,44.90
2018-03-20T05:43:26.625Z,45.30
2018-03-20T05:44:28.055Z,45.20
2018-03-20T05:46:39.151Z,45.00
2018-03-20T05:47:46.704Z,44.90
2018-03-20T05:51:30.555Z,44.80
2018-03-20T05:52:32.143Z,44.80
2018-03-20T05:53:33.719Z,44.80
2018-03-20T05:56:45.895Z,44.60
2018-03-20T05:57:47.538Z,44.70
2018-03-20T05:58:49.144Z,44.60
2018-03-20T05:59:50.685Z,44.60
2018-03-20T06:00:52.203Z,44.60
2018-03-20T06:01:53.975Z,44.60
2018-03-20T06:02:56.367Z,45.10
2018-03-20T06:03:58.027Z,44.60
2018-03-20T06:04:59.734Z,44.60
2018-03-20T06:06:01.215Z,44.60
2018-03-20T06:07:02.819Z,44.90
2018-03-20T06:08:04.253Z,45.10
2018-03-20T06:09:05.696Z,45.00
2018-03-20T06:10:07.881Z,45.50
2018-03-20T06:11:09.404Z,45.00
2018-03-20T06:12:11.937Z,45.70
2018-03-20T06:13:14.475Z,45.00
2018-03-20T06:14:15.901Z,45.00
2018-03-20T06:15:18.782Z,45.10
2018-03-20T06:16:20.582Z,45.10
2018-03-20T06:17:22.742Z,45.50
2018-03-20T06:18:24.139Z,45.20
2018-03-20T06:19:25.563Z,45.00
2018-03-20T06:20:27.749Z,44.90
2018-03-20T06:21:30.623Z,44.90
2018-03-20T06:22:32.057Z,45.00
2018-03-20T06:23:33.451Z,45.20
2018-03-20T06:24:35.592Z,45.10
2018-03-20T06:25:36.981Z,45.10
2018-03-20T06:26:38.381Z,45.20
2018-03-20T06:28:43.213Z,45.30
2018-03-20T06:31:27.001Z,44.90
2018-03-20T06:33:32.269Z,44.70
2018-03-20T06:34:33.733Z,44.70
2018-03-20T06:35:35.129Z,44.90
2018-03-20T06:36:36.521Z,45.00
2018-03-20T06:40:38.840Z,44.50
2018-03-20T06:41:40.620Z,44.40
2018-03-20T06:42:43.137Z,44.60
2018-03-20T06:43:44.571Z,44.60
2018-03-20T06:44:46.694Z,45.00
2018-03-20T06:45:48.094Z,44.60
2018-03-20T06:46:50.624Z,44.30
2018-03-20T06:47:52.029Z,44.30
2018-03-20T06:48:53.437Z,44.40
2018-03-20T06:50:58.836Z,45.10
2018-03-20T06:52:00.209Z,44.80
2018-03-20T06:53:02.395Z,45.00
2018-03-20T06:54:03.835Z,44.30
2018-03-20T06:55:05.265Z,44.30
2018-03-20T06:56:06.678Z,44.30
2018-03-20T06:59:15.782Z,44.40
2018-03-20T07:00:17.984Z,45.00
2018-03-20T07:01:19.421Z,44.60
2018-03-20T07:02:20.819Z,44.70
2018-03-20T07:03:22.228Z,44.90
2018-03-20T07:04:23.655Z,44.90
2018-03-20T07:05:26.521Z,45.00
2018-03-20T07:06:27.945Z,45.00
2018-03-20T07:07:29.339Z,45.10
2018-03-20T07:08:30.737Z,44.80
2018-03-20T07:09:32.919Z,44.80
2018-03-20T07:10:34.337Z,44.70
2018-03-20T07:11:36.511Z,44.60
2018-03-20T07:12:38.641Z,44.60
2018-03-20T07:13:40.049Z,44.10
2018-03-20T07:14:42.249Z,44.30
2018-03-20T07:15:43.621Z,44.60
2018-03-20T07:16:45.019Z,44.80
2018-03-20T07:17:46.417Z,44.90
2018-03-20T07:18:47.869Z,44.70
2018-03-20T07:19:49.306Z,44.70
2018-03-20T07:20:50.721Z,44.90
2018-03-20T07:21:52.873Z,45.60
2018-03-20T07:22:55.450Z,45.20
2018-03-20T07:23:56.861Z,45.30
2018-03-20T07:24:58.277Z,45.30
2018-03-20T07:27:03.235Z,44.60
2018-03-20T07:29:07.775Z,44.90
2018-03-20T07:30:35.424Z,44.60
2018-03-20T07:31:37.608Z,45.20
2018-03-20T07:32:40.521Z,44.80
2018-03-20T07:33:42.941Z,44.90
2018-03-20T07:34:44.365Z,45.10
2018-03-20T07:35:45.785Z,45.10
2018-03-20T07:36:47.189Z,45.30
2018-03-20T07:38:36.293Z,45.40
2018-03-20T07:39:37.695Z,45.20
2018-03-20T07:40:39.104Z,45.00
2018-03-20T07:41:40.525Z,44.90
2018-03-20T07:42:42.256Z,44.90
2018-03-20T07:43:43.669Z,45.10
2018-03-20T07:44:45.536Z,44.90
2018-03-20T07:45:46.871Z,44.80
2018-03-20T07:46:48.302Z,44.80
2018-03-20T07:47:51.192Z,45.00
2018-03-20T07:48:52.596Z,45.10
2018-03-20T07:49:53.993Z,45.20
2018-03-20T07:50:55.390Z,45.00
2018-03-20T07:51:57.129Z,45.00
2018-03-20T07:52:58.542Z,45.30
2018-03-20T07:53:59.934Z,45.30
2018-03-20T07:55:02.110Z,45.10
2018-03-20T07:56:04.296Z,45.60
2018-03-20T07:57:06.462Z,45.40
2018-03-20T07:58:08.619Z,45.40
2018-03-20T08:00:08.111Z,45.20
2018-03-20T08:01:09.509Z,45.10
2018-03-20T08:02:12.365Z,45.40
2018-03-20T08:03:53.782Z,44.90
2018-03-20T08:07:13.840Z,44.80
2018-03-20T08:08:15.988Z,45.50
2018-03-20T08:09:17.395Z,45.00
2018-03-20T08:10:18.790Z,45.10
2018-03-20T08:13:20.881Z,45.00
2018-03-20T08:14:22.310Z,45.10
2018-03-20T08:15:23.717Z,45.10
2018-03-20T08:17:08.810Z,45.20
2018-03-20T08:18:10.267Z,45.00
2018-03-20T08:19:11.950Z,45.00
2018-03-20T08:20:14.093Z,45.80
2018-03-20T08:21:15.506Z,45.10
2018-03-20T08:23:33.220Z,45.40
2018-03-20T08:25:23.786Z,45.30
2018-03-20T08:26:25.173Z,45.30
2018-03-20T08:28:53.929Z,45.50
2018-03-20T08:29:56.473Z,45.50
2018-03-20T08:30:58.630Z,45.70
2018-03-20T08:32:00.020Z,45.20
2018-03-20T08:33:01.411Z,45.20
2018-03-20T08:34:02.801Z,45.20
2018-03-20T08:35:38.961Z,45.80
2018-03-20T08:37:44.250Z,46.10
2018-03-20T08:38:45.681Z,45.70
2018-03-20T08:39:47.086Z,45.80
2018-03-20T08:40:49.229Z,46.40
2018-03-20T08:41:50.652Z,45.90
2018-03-20T08:45:16.900Z,45.70
2018-03-20T08:46:18.297Z,45.60
2018-03-20T08:47:20.448Z,45.80
2018-03-20T08:48:48.749Z,45.70
2018-03-20T08:50:47.958Z,45.80
2018-03-20T08:51:50.474Z,45.80
2018-03-20T08:52:51.886Z,45.80
2018-03-20T08:53:53.293Z,45.80
2018-03-20T08:55:36.112Z,46.10
2018-03-20T08:56:38.306Z,46.50
2018-03-20T08:57:40.453Z,46.10
2018-03-20T08:58:42.896Z,46.60
2018-03-20T09:00:48.155Z,46.60
2018-03-20T09:01:49.573Z,46.00
2018-03-20T09:02:50.997Z,45.90
2018-03-20T09:03:53.190Z,45.90
2018-03-20T09:04:55.718Z,45.80
2018-03-20T09:05:57.128Z,45.80
2018-03-20T09:06:58.566Z,45.90
2018-03-20T09:08:00.711Z,46.50
2018-03-20T09:09:02.950Z,46.10
2018-03-20T09:10:04.386Z,46.10
2018-03-20T09:11:05.796Z,46.10
2018-03-20T09:12:07.210Z,46.10
2018-03-20T09:13:08.605Z,46.00
2018-03-20T09:14:53.869Z,45.60
2018-03-20T09:15:55.273Z,45.60
2018-03-20T09:16:56.654Z,45.60
2018-03-20T09:17:58.090Z,45.80
2018-03-20T09:18:59.478Z,45.80
2018-03-20T09:20:01.632Z,46.40
2018-03-20T09:21:03.037Z,46.00
2018-03-20T09:22:04.447Z,45.60
2018-03-20T09:23:06.592Z,46.60
2018-03-20T09:24:08.042Z,46.80
2018-03-20T09:25:09.481Z,46.50
2018-03-20T09:27:58.586Z,46.00
2018-03-20T09:29:00.002Z,45.50
2018-03-20T09:30:01.424Z,45.40
2018-03-20T09:31:02.867Z,45.20
2018-03-20T09:33:07.377Z,45.10
2018-03-20T09:34:12.055Z,45.20
2018-03-20T09:35:14.222Z,46.00
2018-03-20T09:36:16.742Z,45.30
2018-03-20T09:37:18.126Z,45.10
2018-03-20T09:38:19.542Z,44.90
2018-03-20T09:39:20.946Z,45.10
2018-03-20T09:40:22.355Z,45.10
2018-03-20T09:41:23.770Z,45.20
2018-03-20T09:42:25.912Z,45.40
2018-03-20T09:43:27.363Z,44.90
2018-03-20T09:44:28.715Z,44.80
2018-03-20T09:45:30.134Z,45.00
2018-03-20T09:46:31.543Z,44.90
2018-03-20T09:47:33.716Z,44.90
2018-03-20T09:48:35.122Z,44.40
2018-03-20T09:49:36.517Z,44.40
2018-03-20T09:50:37.906Z,44.30
2018-03-20T09:51:40.422Z,44.40
2018-03-20T09:52:42.073Z,44.50
2018-03-20T09:53:43.474Z,44.60
2018-03-20T09:54:45.996Z,44.60
2018-03-20T09:55:48.128Z,44.90
2018-03-20T09:56:50.290Z,44.60
2018-03-20T09:57:51.690Z,44.80
2018-03-20T09:58:53.821Z,45.40
2018-03-20T09:59:55.225Z,44.90
2018-03-20T10:00:57.358Z,45.20
2018-03-20T10:02:50.618Z,44.60
2018-03-20T10:03:52.018Z,44.60
2018-03-20T10:04:53.414Z,44.90
2018-03-20T10:05:54.809Z,44.90
2018-03-20T10:06:56.210Z,45.00
2018-03-20T10:07:57.646Z,44.90
2018-03-20T10:08:59.057Z,45.10
2018-03-20T10:10:00.503Z,45.40
2018-03-20T10:11:01.910Z,45.60
2018-03-20T10:12:03.326Z,45.20
2018-03-20T10:13:04.748Z,44.80
2018-03-20T10:14:06.888Z,44.80
2018-03-20T10:15:08.307Z,44.40
2018-03-20T10:16:09.710Z,44.60
2018-03-20T10:17:11.877Z,44.70
2018-03-20T10:18:13.286Z,45.10
2018-03-20T10:19:14.658Z,45.20
2018-03-20T10:20:16.089Z,45.20
2018-03-20T10:21:18.217Z,46.00
2018-03-20T10:22:20.735Z,45.60
2018-03-20T10:23:22.878Z,46.10
2018-03-20T10:24:24.313Z,45.60
2018-03-20T10:25:25.721Z,45.60
2018-03-20T10:26:27.119Z,45.90
2018-03-20T10:27:28.528Z,45.70
2018-03-20T10:28:29.950Z,45.70
2018-03-20T10:31:51.113Z,46.40
2018-03-20T10:32:52.498Z,45.80
2018-03-20T10:33:53.902Z,46.20
2018-03-20T10:34:55.306Z,46.70
2018-03-20T10:35:57.445Z,47.10
2018-03-20T10:36:58.908Z,46.30
2018-03-20T10:38:00.560Z,46.80
2018-03-20T10:39:02.424Z,46.70
2018-03-20T10:41:09.517Z,47.00
2018-03-20T10:43:51.664Z,47.00
2018-03-20T10:44:53.054Z,46.70
2018-03-20T10:45:55.938Z,47.10
2018-03-20T10:46:57.358Z,47.20
2018-03-20T10:48:20.683Z,46.90
2018-03-20T10:49:22.130Z,46.80
2018-03-20T10:50:23.558Z,46.90
2018-03-20T10:51:25.779Z,47.10
2018-03-20T10:52:27.174Z,46.80
2018-03-20T10:53:28.578Z,46.70
2018-03-20T10:54:30.696Z,48.60
2018-03-20T10:55:32.354Z,47.60
2018-03-20T10:56:33.792Z,47.20
2018-03-20T10:57:35.962Z,47.70
2018-03-20T10:58:38.130Z,47.10
2018-03-20T11:00:49.193Z,46.30
2018-03-20T11:01:50.630Z,46.70
2018-03-20T11:02:52.018Z,46.90
2018-03-20T11:05:03.489Z,46.70
2018-03-20T11:06:04.921Z,47.00
2018-03-20T11:08:57.090Z,46.50
2018-03-20T11:10:51.396Z,48.00
2018-03-20T11:11:52.801Z,47.50
2018-03-20T11:12:54.234Z,50.10
2018-03-20T11:13:57.117Z,50.30
2018-03-20T11:16:01.628Z,47.70
2018-03-20T11:17:03.065Z,47.70
2018-03-20T11:18:05.217Z,46.80
2018-03-20T11:19:06.631Z,47.00
2018-03-20T11:21:11.881Z,46.60
2018-03-20T11:22:13.296Z,46.70
2018-03-20T11:23:14.686Z,46.50
2018-03-20T11:24:16.102Z,46.10
2018-03-20T11:25:17.535Z,45.60
2018-03-20T11:26:20.406Z,45.50
2018-03-20T11:27:55.338Z,45.20
2018-03-20T11:28:56.781Z,45.40
2018-03-20T11:29:58.266Z,45.80
2018-03-20T11:32:02.778Z,45.40
2018-03-20T11:33:04.218Z,45.30
2018-03-20T11:35:03.644Z,45.40
2018-03-20T11:36:05.053Z,45.40
2018-03-20T11:37:06.457Z,45.40
2018-03-20T11:38:26.418Z,45.70
2018-03-20T11:39:28.596Z,45.70
2018-03-20T11:40:30.018Z,45.20
2018-03-20T11:41:32.165Z,45.40
2018-03-20T11:42:33.602Z,45.30
2018-03-20T11:43:35.064Z,45.10
2018-03-20T11:44:37.217Z,44.60
2018-03-20T11:46:42.722Z,44.80
2018-03-20T11:47:44.124Z,45.00
2018-03-20T11:48:45.578Z,44.80
2018-03-20T11:49:48.462Z,44.10
2018-03-20T11:51:14.329Z,44.10
2018-03-20T11:52:16.458Z,43.10
2018-03-20T11:55:12.131Z,44.40
2018-03-20T11:56:13.530Z,44.50
2018-03-20T11:57:15.689Z,44.40
2018-03-20T11:58:17.093Z,44.00
2018-03-20T11:59:18.516Z,44.10
2018-03-20T12:00:21.401Z,44.20
2018-03-20T12:01:22.797Z,44.00
2018-03-20T12:02:24.211Z,43.80
2018-03-20T12:04:16.432Z,45.70
2018-03-20T12:05:17.842Z,45.50
2018-03-20T12:06:19.321Z,44.50
2018-03-20T12:07:20.742Z,44.00
2018-03-20T12:08:41.410Z,43.50
2018-03-20T12:09:47.950Z,43.90
2018-03-20T12:10:51.150Z,43.70
2018-03-20T12:11:52.566Z,43.90
2018-03-20T12:12:53.975Z,44.00
2018-03-20T12:13:55.374Z,44.10
2018-03-20T12:14:56.777Z,44.00
2018-03-20T12:15:58.461Z,44.00
2018-03-20T12:17:00.599Z,43.60
2018-03-20T12:18:02.048Z,43.40
2018-03-20T12:19:03.486Z,43.60
2018-03-20T12:20:04.920Z,43.60
2018-03-20T12:21:07.085Z,43.60
2018-03-20T12:22:08.547Z,43.90
2018-03-20T12:23:09.958Z,44.20
2018-03-20T12:24:11.382Z,44.20
2018-03-20T12:25:12.812Z,44.20
2018-03-20T12:26:47.596Z,43.80
2018-03-20T12:27:49.006Z,43.60
2018-03-20T12:28:51.160Z,44.00
2018-03-20T12:29:52.561Z,43.10
2018-03-20T12:30:53.958Z,42.90
2018-03-20T12:31:55.396Z,43.00
2018-03-20T12:34:57.068Z,43.70
2018-03-20T12:37:01.598Z,43.90
2018-03-20T12:39:06.261Z,43.50
2018-03-20T12:40:08.030Z,43.90
2018-03-20T12:41:10.163Z,43.40
2018-03-20T12:42:12.406Z,43.30
2018-03-20T12:43:13.818Z,43.40
2018-03-20T12:44:15.254Z,43.40
2018-03-20T12:45:16.668Z,43.50
2018-03-20T12:46:18.074Z,43.80
2018-03-20T12:47:19.502Z,43.70
2018-03-20T12:48:21.265Z,44.00
2018-03-20T12:49:23.411Z,44.50
2018-03-20T12:50:24.819Z,44.00
2018-03-20T12:51:26.212Z,44.00
2018-03-20T12:52:27.626Z,43.70
2018-03-20T12:53:29.060Z,43.70
2018-03-20T12:54:31.259Z,44.20
2018-03-20T12:55:33.358Z,44.10
2018-03-20T12:56:34.770Z,43.80
2018-03-20T12:57:36.186Z,43.90
2018-03-20T12:58:38.323Z,44.80
2018-03-20T13:03:43.794Z,43.50
2018-03-20T13:04:45.989Z,43.10
2018-03-20T13:05:47.396Z,43.00
2018-03-20T13:07:32.778Z,43.90
2018-03-20T13:08:34.197Z,43.00
2018-03-20T13:09:35.917Z,43.00
2018-03-20T13:10:37.331Z,42.90
2018-03-20T13:11:38.736Z,42.80
2018-03-20T13:12:42.078Z,42.90
2018-03-20T13:13:43.501Z,43.20
2018-03-20T13:14:45.658Z,44.00
2018-03-20T13:15:47.080Z,42.50
2018-03-20T13:16:48.490Z,42.80
2018-03-20T13:17:50.270Z,43.30
2018-03-20T13:18:52.397Z,44.30
2018-03-20T13:20:23.501Z,44.00
2018-03-20T13:21:25.646Z,44.60
2018-03-20T13:22:27.066Z,44.10
2018-03-20T13:23:28.557Z,44.20
2018-03-20T13:24:29.862Z,44.20
2018-03-20T13:25:31.590Z,44.30
2018-03-20T13:26:33.002Z,44.30
2018-03-20T13:28:37.536Z,43.70
2018-03-20T13:29:38.958Z,43.60
2018-03-20T13:30:41.798Z,43.70
2018-03-20T13:31:43.985Z,42.70
2018-03-20T13:32:46.149Z,43.30
2018-03-20T13:34:50.678Z,42.80
2018-03-20T13:35:52.152Z,42.80
2018-03-20T13:37:57.458Z,43.30
2018-03-20T13:39:00.346Z,42.20
2018-03-20T13:40:01.766Z,42.20
2018-03-20T13:41:03.202Z,42.20
2018-03-20T13:42:06.086Z,42.20
2018-03-20T13:43:07.482Z,42.60
2018-03-20T13:45:56.322Z,42.20
2018-03-20T13:46:58.050Z,41.80
2018-03-20T13:47:59.462Z,42.10
2018-03-20T13:49:00.873Z,41.90
2018-03-20T13:50:02.690Z,41.30
2018-03-20T13:52:26.023Z,42.30
2018-03-20T13:53:28.161Z,41.00
2018-03-20T13:55:26.076Z,41.40
2018-03-20T13:57:30.858Z,41.70
2018-03-20T13:58:33.016Z,41.20
2018-03-20T14:00:18.077Z,41.20
2018-03-20T14:01:20.219Z,42.10
2018-03-20T14:02:21.634Z,41.80
2018-03-20T14:04:13.510Z,41.70
2018-03-20T14:05:14.966Z,41.50
2018-03-20T14:06:17.889Z,41.50
2018-03-20T14:07:20.854Z,41.70
2018-03-20T14:08:58.194Z,41.80
2018-03-20T14:10:00.342Z,42.20
2018-03-20T14:11:01.733Z,41.80
2018-03-20T14:13:06.290Z,41.00
2018-03-20T14:14:07.728Z,40.40
2018-03-20T14:16:12.734Z,39.90
2018-03-20T14:17:14.151Z,40.40
2018-03-20T14:18:16.666Z,40.50
2018-03-20T14:19:19.195Z,40.10
2018-03-20T14:21:23.734Z,40.30
2018-03-20T14:22:25.862Z,41.00
2018-03-20T14:23:27.258Z,40.40
2018-03-20T14:25:31.792Z,40.70
2018-03-20T14:27:37.179Z,41.20
2018-03-20T14:31:11.906Z,41.30
2018-03-20T14:32:13.315Z,41.20
2018-03-20T14:33:16.202Z,41.60
2018-03-20T14:34:17.609Z,41.30
2018-03-20T14:35:19.014Z,41.50
2018-03-20T14:36:21.920Z,41.40
2018-03-20T14:38:27.518Z,40.80
2018-03-20T14:39:28.929Z,40.80
2018-03-20T14:40:30.698Z,40.50
2018-03-20T14:41:33.601Z,40.00
2018-03-20T14:42:35.010Z,40.10
2018-03-20T14:44:13.455Z,40.30
2018-03-20T14:45:14.878Z,40.60
2018-03-20T14:46:16.286Z,40.70
2018-03-20T14:47:17.966Z,40.70
2018-03-20T14:48:19.401Z,40.70
2018-03-20T14:49:20.818Z,41.10
2018-03-20T14:50:22.262Z,40.20
2018-03-20T14:52:27.614Z,40.30
2018-03-20T14:53:30.124Z,39.90
2018-03-20T14:54:31.522Z,40.20
2018-03-20T14:55:33.006Z,40.00
2018-03-20T14:56:34.410Z,39.90
2018-03-20T14:57:36.124Z,40.20
2018-03-20T14:58:38.633Z,40.40
2018-03-20T14:59:40.753Z,40.60
2018-03-20T15:00:42.221Z,40.70
2018-03-20T15:01:45.146Z,40.50
2018-03-20T15:02:46.878Z,40.60
2018-03-20T15:04:16.403Z,40.90
2018-03-20T15:05:18.550Z,41.60
2018-03-20T15:06:19.957Z,41.30
2018-03-20T15:07:58.401Z,41.30
2018-03-20T15:08:59.813Z,41.30
2018-03-20T15:11:42.769Z,41.10
2018-03-20T15:12:45.269Z,40.80
2018-03-20T15:15:18.395Z,40.90
2018-03-20T15:16:20.530Z,41.40
2018-03-20T15:17:21.964Z,41.20
2018-03-20T15:18:23.381Z,41.60
2018-03-20T15:19:24.769Z,41.60
2018-03-20T15:21:29.385Z,41.10
2018-03-20T15:23:17.030Z,41.30
2018-03-20T15:25:03.880Z,41.20
2018-03-20T15:26:05.321Z,41.30
2018-03-20T15:28:36.678Z,41.10
2018-03-20T15:29:38.070Z,41.00
2018-03-20T15:30:39.470Z,40.60
2018-03-20T15:31:42.914Z,40.50
2018-03-20T15:33:48.226Z,40.80
2018-03-20T15:34:49.659Z,40.50
2018-03-20T15:35:51.064Z,40.50
2018-03-20T15:36:53.225Z,40.80
2018-03-20T15:37:54.626Z,40.00
2018-03-20T15:38:56.070Z,40.20
2018-03-20T15:39:57.462Z,40.20
2018-03-20T15:40:58.862Z,40.40
2018-03-20T15:42:00.273Z,40.50
2018-03-20T15:43:02.818Z,40.40
2018-03-20T15:45:08.506Z,40.10
2018-03-20T15:46:09.970Z,40.40
2018-03-20T15:47:11.670Z,40.50
2018-03-20T15:48:13.804Z,40.70
2018-03-20T15:49:15.223Z,40.20
2018-03-20T15:50:16.638Z,40.50
2018-03-20T15:51:18.062Z,40.80
2018-03-20T15:52:19.498Z,40.60
2018-03-20T15:53:20.950Z,40.40
2018-03-20T15:54:22.366Z,40.40
2018-03-20T15:55:25.287Z,40.40
2018-03-20T15:56:26.694Z,40.50
2018-03-20T15:58:21.954Z,40.30
2018-03-20T15:59:24.096Z,40.70
2018-03-20T16:00:25.481Z,40.20
2018-03-20T16:01:26.902Z,40.30
2018-03-20T16:02:28.336Z,40.00
2018-03-20T16:03:30.502Z,40.00
2018-03-20T16:04:31.896Z,39.90
2018-03-20T16:05:33.294Z,40.10
2018-03-20T16:08:41.625Z,39.50
2018-03-20T16:09:43.030Z,39.60
2018-03-20T16:10:44.436Z,39.50
2018-03-20T16:13:05.692Z,39.50
2018-03-20T16:14:07.126Z,39.60
2018-03-20T16:15:10.058Z,39.50
2018-03-20T16:17:44.814Z,39.80
2018-03-20T16:18:46.242Z,39.90
2018-03-20T16:19:47.658Z,39.70
2018-03-20T16:20:49.046Z,39.70
2018-03-20T16:22:13.308Z,39.90
2018-03-20T16:23:14.708Z,40.00
2018-03-20T16:24:16.121Z,40.10
2018-03-20T16:25:17.538Z,40.10
2018-03-20T16:26:20.086Z,40.20
2018-03-20T16:27:22.222Z,40.70
2018-03-20T16:28:25.112Z,40.00
2018-03-20T16:29:27.386Z,39.60
2018-03-20T16:30:28.811Z,39.50
2018-03-20T16:32:06.606Z,38.80
2018-03-20T16:33:08.010Z,39.00
2018-03-20T16:34:09.441Z,38.90
2018-03-20T16:35:11.845Z,38.30
2018-03-20T16:36:58.334Z,38.90
2018-03-20T16:38:58.334Z,38.60
2018-03-20T16:39:59.734Z,38.60
2018-03-20T16:41:01.142Z,38.80
2018-03-20T16:42:02.581Z,38.70
2018-03-20T16:43:04.005Z,38.20
2018-03-20T16:44:06.510Z,38.00
2018-03-20T16:49:20.392Z,37.50
2018-03-20T16:50:21.791Z,37.60
2018-03-20T16:54:32.927Z,37.60